createdAt,value
2018-12-22T00:00:46.192Z,3.90
2018-12-22T00:01:46.211Z,3.30
2018-12-22T00:02:46.229Z,4.00
2018-12-22T00:03:46.245Z,4.40
2018-12-22T00:04:46.262Z,4.00
2018-12-22T00:05:46.287Z,3.90
2018-12-22T00:06:46.313Z,3.80
2018-12-22T00:07:46.322Z,4.30
2018-12-22T00:08:46.335Z,4.60
2018-12-22T00:09:46.357Z,4.90
2018-12-22T00:10:46.389Z,4.60
2018-12-22T00:11:46.392Z,4.30
2018-12-22T00:12:46.405Z,4.40
2018-12-22T00:13:46.430Z,4.60
2018-12-22T00:14:46.443Z,4.90
2018-12-22T00:15:46.458Z,5.10
2018-12-22T00:16:46.474Z,4.50
2018-12-22T00:17:46.494Z,4.30
2018-12-22T00:18:46.517Z,5.00
2018-12-22T00:19:46.535Z,5.20
2018-12-22T00:20:46.550Z,4.50
2018-12-22T00:21:46.565Z,5.10
2018-12-22T00:22:46.582Z,5.00
2018-12-22T00:23:46.611Z,5.00
2018-12-22T00:24:46.625Z,5.50
2018-12-22T00:25:46.642Z,5.40
2018-12-22T00:26:46.666Z,5.40
2018-12-22T00:27:46.674Z,5.10
2018-12-22T00:28:46.706Z,5.60
2018-12-22T00:29:46.736Z,5.60
2018-12-22T00:30:46.735Z,5.30
2018-12-22T00:31:46.754Z,5.10
2018-12-22T00:32:46.763Z,5.10
2018-12-22T00:33:46.781Z,5.60
2018-12-22T00:34:46.815Z,5.70
2018-12-22T00:35:46.813Z,5.40
2018-12-22T00:36:46.837Z,5.40
2018-12-22T00:37:46.861Z,5.70
2018-12-22T00:38:46.875Z,5.50
2018-12-22T00:39:46.887Z,5.50
2018-12-22T00:40:46.899Z,5.50
2018-12-22T00:41:46.922Z,5.70
2018-12-22T00:42:46.941Z,5.80
2018-12-22T00:43:46.952Z,5.50
2018-12-22T00:44:46.971Z,6.40
2018-12-22T00:45:47.001Z,5.60
2018-12-22T00:46:47.012Z,7.00
2018-12-22T00:47:47.039Z,6.00
2018-12-22T00:48:47.051Z,6.10
2018-12-22T00:49:47.062Z,6.10
2018-12-22T00:50:47.080Z,6.20
2018-12-22T00:51:47.101Z,5.90
2018-12-22T00:52:47.117Z,6.60
2018-12-22T00:53:47.129Z,6.30
2018-12-22T00:54:47.150Z,6.60
2018-12-22T00:55:47.190Z,6.70
2018-12-22T00:56:47.194Z,6.30
2018-12-22T00:57:47.206Z,5.80
2018-12-22T00:58:47.222Z,6.40
2018-12-22T00:59:47.237Z,6.30
2018-12-22T01:00:47.261Z,6.60
2018-12-22T01:01:47.319Z,6.50
2018-12-22T01:02:47.295Z,6.20
2018-12-22T01:03:47.319Z,6.30
2018-12-22T01:04:47.333Z,6.50
2018-12-22T01:05:47.346Z,6.50
2018-12-22T01:06:47.365Z,5.60
2018-12-22T01:07:47.389Z,6.10
2018-12-22T01:08:47.400Z,6.40
2018-12-22T01:09:47.416Z,6.10
2018-12-22T01:10:47.450Z,6.50
2018-12-22T01:11:47.454Z,6.20
2018-12-22T01:12:47.490Z,7.00
2018-12-22T01:13:47.488Z,5.90
2018-12-22T01:14:47.510Z,6.70
2018-12-22T01:15:47.538Z,6.70
2018-12-22T01:16:47.549Z,6.50
2018-12-22T01:17:47.557Z,6.70
2018-12-22T01:18:47.581Z,6.80
2018-12-22T01:19:47.598Z,7.40
2018-12-22T01:20:47.614Z,6.70
2018-12-22T01:21:47.628Z,6.90
2018-12-22T01:22:47.648Z,7.30
2018-12-22T01:23:47.669Z,7.10
2018-12-22T01:24:47.686Z,7.00
2018-12-22T01:25:47.698Z,7.70
2018-12-22T01:26:47.718Z,7.10
2018-12-22T01:27:47.734Z,6.90
2018-12-22T01:28:47.751Z,7.40
2018-12-22T01:29:47.800Z,7.90
2018-12-22T01:30:47.802Z,7.50
2018-12-22T01:31:47.806Z,7.20
2018-12-22T01:32:47.825Z,7.10
2018-12-22T01:33:47.845Z,6.80
2018-12-22T01:34:47.864Z,6.90
2018-12-22T01:35:47.876Z,6.90
2018-12-22T01:36:47.894Z,6.60
2018-12-22T01:37:47.914Z,6.60
2018-12-22T01:38:47.941Z,6.50
2018-12-22T01:39:47.949Z,6.40
2018-12-22T01:40:47.962Z,6.50
2018-12-22T01:41:47.991Z,5.80
2018-12-22T01:42:48.003Z,6.20
2018-12-22T01:43:48.017Z,6.10
2018-12-22T01:44:48.035Z,6.10
2018-12-22T01:45:48.057Z,6.10
2018-12-22T01:46:48.066Z,6.60
2018-12-22T01:47:48.089Z,6.30
2018-12-22T01:48:48.107Z,5.70
2018-12-22T01:49:48.150Z,6.00
2018-12-22T01:50:48.158Z,5.60
2018-12-22T01:51:48.172Z,5.50
2018-12-22T01:52:48.186Z,5.90
2018-12-22T01:53:48.194Z,5.60
2018-12-22T01:54:48.213Z,5.10
2018-12-22T01:55:48.234Z,5.10
2018-12-22T01:56:48.244Z,5.70
2018-12-22T01:57:48.265Z,5.60
2018-12-22T01:58:48.282Z,5.80
2018-12-22T01:59:48.300Z,5.00
2018-12-22T02:00:48.338Z,5.40
2018-12-22T02:01:48.334Z,5.50
2018-12-22T02:02:48.346Z,5.80
2018-12-22T02:03:48.366Z,5.10
2018-12-22T02:04:48.388Z,5.70
2018-12-22T02:05:48.409Z,5.10
2018-12-22T02:06:48.422Z,5.00
2018-12-22T02:07:48.448Z,5.20
2018-12-22T02:08:48.476Z,5.00
2018-12-22T02:09:48.485Z,5.40
2018-12-22T02:10:48.496Z,5.00
2018-12-22T02:11:48.507Z,5.40
2018-12-22T02:12:48.530Z,5.30
2018-12-22T02:13:48.569Z,4.80
2018-12-22T02:14:48.562Z,4.70
2018-12-22T02:15:48.597Z,5.00
2018-12-22T02:16:48.624Z,5.10
2018-12-22T02:17:48.624Z,4.90
2018-12-22T02:18:48.640Z,4.90
2018-12-22T02:19:48.654Z,4.60
2018-12-22T02:20:48.674Z,4.60
2018-12-22T02:21:48.684Z,4.60
2018-12-22T02:22:48.715Z,4.60
2018-12-22T02:23:48.722Z,4.70
2018-12-22T02:24:48.740Z,4.40
2018-12-22T02:25:48.758Z,4.00
2018-12-22T02:26:48.771Z,4.10
2018-12-22T02:27:48.792Z,4.20
2018-12-22T02:28:56.372Z,4.70
2018-12-22T02:29:48.827Z,4.30
2018-12-22T02:30:48.843Z,4.40
2018-12-22T02:31:48.864Z,4.30
2018-12-22T02:32:48.896Z,3.80
2018-12-22T02:33:48.902Z,3.80
2018-12-22T02:34:48.915Z,3.80
2018-12-22T02:35:48.948Z,3.80
2018-12-22T02:36:48.959Z,4.20
2018-12-22T02:37:48.976Z,4.40
2018-12-22T02:38:48.985Z,3.80
2018-12-22T02:39:49.017Z,3.80
2018-12-22T02:40:49.025Z,4.10
2018-12-22T02:41:49.046Z,3.80
2018-12-22T02:42:49.058Z,3.90
2018-12-22T02:43:49.091Z,3.30
2018-12-22T02:44:49.115Z,3.50
2018-12-22T02:45:49.130Z,3.20
2018-12-22T02:46:49.134Z,3.50
2018-12-22T02:47:49.149Z,3.10
2018-12-22T02:48:49.169Z,3.40
2018-12-22T02:49:49.190Z,3.30
2018-12-22T02:50:49.212Z,3.50
2018-12-22T02:51:49.222Z,3.50
2018-12-22T02:52:49.239Z,3.30
2018-12-22T02:53:49.266Z,3.10
2018-12-22T02:54:49.270Z,3.50
2018-12-22T02:55:49.291Z,3.20
2018-12-22T02:56:49.325Z,3.60
2018-12-22T02:57:49.326Z,3.70
2018-12-22T02:58:49.363Z,4.10
2018-12-22T02:59:49.373Z,3.80
2018-12-22T03:00:49.385Z,3.90
2018-12-22T03:01:49.403Z,3.80
2018-12-22T03:02:49.415Z,3.70
2018-12-22T03:03:49.523Z,3.60
2018-12-22T03:04:49.457Z,3.50
2018-12-22T03:05:49.475Z,3.70
2018-12-22T03:06:49.505Z,3.40
2018-12-22T03:07:49.523Z,3.40
2018-12-22T03:08:49.527Z,3.70
2018-12-22T03:09:49.561Z,3.80
2018-12-22T03:10:49.562Z,3.40
2018-12-22T03:11:49.608Z,3.40
2018-12-22T03:12:49.601Z,3.30
2018-12-22T03:13:49.620Z,3.50
2018-12-22T03:14:49.639Z,3.40
2018-12-22T03:15:49.658Z,3.40
2018-12-22T03:16:49.674Z,3.20
2018-12-22T03:17:49.685Z,3.20
2018-12-22T03:18:49.703Z,3.20
2018-12-22T03:19:49.732Z,3.10
2018-12-22T03:20:49.759Z,3.10
2018-12-22T03:21:49.767Z,3.30
2018-12-22T03:22:49.788Z,3.00
2018-12-22T03:23:49.819Z,3.00
2018-12-22T03:24:49.811Z,3.50
2018-12-22T03:25:49.833Z,3.20
2018-12-22T03:26:49.848Z,2.60
2018-12-22T03:27:49.870Z,3.30
2018-12-22T03:28:49.884Z,2.60
2018-12-22T03:29:49.920Z,2.70
2018-12-22T03:30:49.940Z,2.70
2018-12-22T03:31:49.951Z,2.90
2018-12-22T03:32:49.961Z,2.70
2018-12-22T03:33:50.000Z,3.00
2018-12-22T03:34:50.014Z,3.10
2018-12-22T03:35:50.041Z,3.00
2018-12-22T03:36:50.043Z,2.60
2018-12-22T03:37:50.195Z,2.80
2018-12-22T03:38:50.095Z,3.20
2018-12-22T03:39:50.120Z,2.90
2018-12-22T03:40:50.119Z,3.30
2018-12-22T03:41:50.152Z,3.60
2018-12-22T03:42:50.146Z,3.40
2018-12-22T03:43:50.168Z,4.00
2018-12-22T03:44:50.176Z,3.20
2018-12-22T03:45:50.197Z,3.70
2018-12-22T03:46:50.215Z,3.40
2018-12-22T03:47:50.231Z,3.60
2018-12-22T03:48:50.254Z,3.40
2018-12-22T03:49:50.270Z,3.50
2018-12-22T03:50:50.280Z,3.50
2018-12-22T03:51:50.337Z,3.60
2018-12-22T03:52:50.323Z,3.90
2018-12-22T03:53:50.344Z,4.70
2018-12-22T03:54:50.356Z,5.10
2018-12-22T03:55:50.377Z,4.50
2018-12-22T03:56:50.393Z,5.20
2018-12-22T03:57:50.409Z,5.70
2018-12-22T03:58:50.444Z,5.70
2018-12-22T03:59:50.445Z,6.20
2018-12-22T04:00:50.462Z,5.90
2018-12-22T04:01:50.494Z,6.00
2018-12-22T04:02:50.514Z,5.90
2018-12-22T04:03:50.570Z,6.70
2018-12-22T04:04:50.563Z,7.00
2018-12-22T04:05:50.562Z,7.80
2018-12-22T04:06:50.591Z,8.40
2018-12-22T04:07:50.606Z,8.80
2018-12-22T04:08:50.610Z,9.40
2018-12-22T04:09:50.635Z,9.60
2018-12-22T04:10:50.679Z,9.60
2018-12-22T04:11:50.666Z,9.20
2018-12-22T04:12:50.691Z,9.80
2018-12-22T04:13:50.706Z,9.60
2018-12-22T04:14:50.722Z,8.60
2018-12-22T04:15:50.775Z,7.80
2018-12-22T04:16:50.802Z,7.60
2018-12-22T04:17:50.776Z,8.30
2018-12-22T04:18:50.815Z,8.20
2018-12-22T04:19:50.817Z,9.90
2018-12-22T04:20:50.838Z,9.40
2018-12-22T04:21:50.849Z,10.00
2018-12-22T04:22:50.867Z,9.60
2018-12-22T04:23:50.887Z,8.90
2018-12-22T04:24:50.901Z,10.20
2018-12-22T04:25:50.930Z,10.00
2018-12-22T04:26:50.937Z,10.50
2018-12-22T04:27:50.969Z,10.50
2018-12-22T04:28:50.975Z,10.60
2018-12-22T04:29:50.993Z,9.90
2018-12-22T04:30:51.012Z,9.60
2018-12-22T04:31:51.027Z,10.70
2018-12-22T04:32:51.066Z,9.20
2018-12-22T04:33:51.072Z,10.10
2018-12-22T04:34:51.092Z,9.90
2018-12-22T04:35:51.145Z,9.20
2018-12-22T04:36:51.143Z,10.00
2018-12-22T04:37:51.149Z,10.40
2018-12-22T04:38:51.161Z,10.20
2018-12-22T04:39:51.222Z,9.60
2018-12-22T04:40:51.198Z,9.30
2018-12-22T04:41:51.214Z,10.00
2018-12-22T04:42:51.239Z,9.50
2018-12-22T04:43:51.252Z,8.40
2018-12-22T04:44:51.274Z,8.00
2018-12-22T04:45:51.288Z,7.60
2018-12-22T04:46:51.324Z,8.50
2018-12-22T04:47:51.321Z,7.90
2018-12-22T04:48:51.489Z,8.20
2018-12-22T04:49:51.359Z,7.90
2018-12-22T04:50:51.424Z,7.40
2018-12-22T04:51:51.394Z,8.10
2018-12-22T04:52:51.412Z,8.10
2018-12-22T04:53:51.557Z,7.30
2018-12-22T04:54:51.549Z,8.10
2018-12-22T04:55:51.612Z,7.00
2018-12-22T04:56:51.510Z,7.50
2018-12-22T04:57:51.508Z,7.10
2018-12-22T04:58:51.527Z,8.20
2018-12-22T04:59:51.568Z,8.20
2018-12-22T05:00:51.622Z,7.80
2018-12-22T05:01:51.590Z,8.10
2018-12-22T05:02:51.625Z,7.20
2018-12-22T05:03:51.623Z,6.90
2018-12-22T05:04:51.635Z,7.40
2018-12-22T05:05:51.648Z,7.30
2018-12-22T05:06:51.667Z,7.00
2018-12-22T05:07:51.684Z,7.30
2018-12-22T05:08:51.712Z,7.90
2018-12-22T05:09:51.741Z,7.50
2018-12-22T05:10:51.738Z,8.00
2018-12-22T05:11:51.759Z,7.40
2018-12-22T05:12:51.780Z,7.30
2018-12-22T05:13:51.799Z,6.60
2018-12-22T05:14:51.818Z,6.80
2018-12-22T05:15:51.837Z,6.50
2018-12-22T05:16:51.853Z,6.80
2018-12-22T05:17:51.873Z,6.50
2018-12-22T05:18:51.890Z,6.80
2018-12-22T05:19:51.913Z,7.00
2018-12-22T05:20:51.923Z,7.30
2018-12-22T05:21:51.948Z,7.60
2018-12-22T05:22:51.957Z,6.90
2018-12-22T05:23:51.981Z,6.70
2018-12-22T05:24:51.998Z,7.50
2018-12-22T05:25:52.017Z,6.30
2018-12-22T05:26:52.033Z,6.50
2018-12-22T05:27:52.048Z,6.50
2018-12-22T05:28:52.065Z,6.80
2018-12-22T05:29:52.265Z,6.80
2018-12-22T05:30:52.102Z,6.80
2018-12-22T05:31:52.122Z,6.40
2018-12-22T05:32:52.143Z,6.70
2018-12-22T05:33:52.161Z,6.50
2018-12-22T05:34:52.183Z,6.20
2018-12-22T05:35:52.207Z,6.90
2018-12-22T05:36:52.216Z,5.90
2018-12-22T05:37:52.235Z,5.40
2018-12-22T05:38:52.261Z,6.20
2018-12-22T05:39:52.290Z,6.50
2018-12-22T05:40:52.299Z,5.70
2018-12-22T05:41:52.304Z,5.80
2018-12-22T05:42:52.438Z,6.20
2018-12-22T05:43:52.345Z,5.80
2018-12-22T05:44:52.377Z,6.00
2018-12-22T05:45:52.429Z,5.70
2018-12-22T05:46:52.392Z,6.40
2018-12-22T05:47:52.422Z,6.50
2018-12-22T05:48:52.450Z,6.70
2018-12-22T05:49:52.483Z,6.90
2018-12-22T05:50:52.478Z,6.20
2018-12-22T05:51:52.493Z,6.40
2018-12-22T05:52:52.565Z,6.60
2018-12-22T05:53:52.525Z,6.60
2018-12-22T05:54:52.556Z,6.30
2018-12-22T05:55:52.570Z,5.40
2018-12-22T05:56:52.579Z,6.10
2018-12-22T05:57:52.608Z,6.20
2018-12-22T05:58:52.615Z,5.20
2018-12-22T06:00:00.218Z,4.80
2018-12-22T06:00:52.656Z,4.80
2018-12-22T06:01:52.681Z,4.40
2018-12-22T06:02:52.689Z,4.70
2018-12-22T06:03:52.718Z,4.40
2018-12-22T06:04:52.722Z,4.30
2018-12-22T06:05:52.743Z,3.80
2018-12-22T06:06:52.760Z,4.00
2018-12-22T06:07:52.779Z,4.70
2018-12-22T06:08:52.804Z,3.40
2018-12-22T06:09:52.830Z,3.60
2018-12-22T06:10:52.833Z,3.50
2018-12-22T06:11:52.851Z,3.40
2018-12-22T06:12:52.875Z,3.50
2018-12-22T06:13:52.894Z,3.90
2018-12-22T06:14:52.923Z,3.80
2018-12-22T06:15:53.038Z,3.60
2018-12-22T06:16:52.944Z,3.90
2018-12-22T06:17:52.965Z,3.70
2018-12-22T06:18:52.986Z,3.80
2018-12-22T06:19:53.001Z,3.10
2018-12-22T06:20:53.019Z,3.70
2018-12-22T06:21:53.036Z,3.60
2018-12-22T06:22:53.061Z,3.40
2018-12-22T06:23:53.072Z,3.50
2018-12-22T06:24:53.114Z,3.30
2018-12-22T06:25:53.115Z,4.50
2018-12-22T06:26:53.136Z,4.60
2018-12-22T06:27:53.166Z,4.60
2018-12-22T06:28:53.209Z,4.60
2018-12-22T06:29:53.202Z,4.30
2018-12-22T06:30:53.226Z,3.80
2018-12-22T06:31:53.222Z,3.60
2018-12-22T06:32:53.238Z,3.60
2018-12-22T06:33:53.255Z,4.20
2018-12-22T06:34:53.274Z,3.70
2018-12-22T06:35:53.298Z,13.00
2018-12-22T06:36:53.324Z,9.00
2018-12-22T06:37:53.333Z,6.20
2018-12-22T06:38:53.351Z,4.00
2018-12-22T06:39:53.369Z,4.40
2018-12-22T06:40:53.411Z,4.20
2018-12-22T06:41:53.401Z,3.70
2018-12-22T06:42:53.468Z,4.20
2018-12-22T06:43:53.445Z,4.20
2018-12-22T06:44:53.454Z,3.90
2018-12-22T06:45:53.478Z,4.00
2018-12-22T06:46:53.509Z,3.40
2018-12-22T06:47:53.806Z,3.60
2018-12-22T06:48:53.539Z,3.90
2018-12-22T06:49:53.552Z,3.90
2018-12-22T06:50:53.563Z,3.80
2018-12-22T06:51:53.581Z,4.40
2018-12-22T06:52:53.608Z,4.30
2018-12-22T06:53:53.617Z,4.30
2018-12-22T06:54:53.642Z,4.40
2018-12-22T06:55:53.795Z,3.10
2018-12-22T06:56:53.693Z,3.80
2018-12-22T06:57:53.699Z,4.10
2018-12-22T06:58:53.725Z,3.90
2018-12-22T06:59:53.732Z,3.30
2018-12-22T07:00:53.833Z,3.80
2018-12-22T07:01:53.766Z,4.00
2018-12-22T07:02:53.790Z,4.00
2018-12-22T07:03:53.807Z,4.10
2018-12-22T07:04:53.825Z,3.70
2018-12-22T07:05:53.846Z,3.70
2018-12-22T07:06:53.888Z,4.10
2018-12-22T07:07:53.909Z,5.00
2018-12-22T07:08:53.926Z,5.90
2018-12-22T07:09:53.915Z,18.10
2018-12-22T07:10:53.923Z,19.20
2018-12-22T07:11:53.950Z,11.70
2018-12-22T07:12:53.983Z,7.00
2018-12-22T07:13:54.051Z,6.90
2018-12-22T07:14:54.008Z,6.70
2018-12-22T07:15:54.018Z,6.50
2018-12-22T07:16:54.056Z,7.40
2018-12-22T07:17:54.059Z,5.60
2018-12-22T07:18:54.074Z,6.00
2018-12-22T07:19:54.164Z,5.70
2018-12-22T07:20:54.108Z,5.90
2018-12-22T07:21:54.128Z,5.80
2018-12-22T07:22:54.149Z,6.00
2018-12-22T07:23:54.158Z,6.40
2018-12-22T07:24:54.197Z,6.00
2018-12-22T07:25:54.230Z,6.70
2018-12-22T07:26:54.230Z,6.20
2018-12-22T07:27:54.252Z,6.10
2018-12-22T07:28:54.257Z,5.80
2018-12-22T07:29:54.280Z,6.30
2018-12-22T07:30:54.663Z,5.80
2018-12-22T07:31:54.307Z,7.50
2018-12-22T07:32:57.211Z,9.50
2018-12-22T07:33:54.351Z,20.20
2018-12-22T07:34:54.376Z,15.30
2018-12-22T07:35:54.379Z,9.70
2018-12-22T07:36:54.396Z,8.50
2018-12-22T07:37:54.415Z,7.20
2018-12-22T07:38:54.446Z,7.00
2018-12-22T07:39:54.457Z,6.40
2018-12-22T07:40:54.467Z,7.60
2018-12-22T07:41:54.489Z,4.80
2018-12-22T07:42:54.503Z,5.80
2018-12-22T07:43:54.526Z,5.50
2018-12-22T07:44:54.541Z,5.60
2018-12-22T07:45:54.599Z,4.90
2018-12-22T07:46:54.593Z,5.00
2018-12-22T07:47:54.618Z,5.30
2018-12-22T07:48:56.737Z,4.60
2018-12-22T07:49:54.633Z,4.60
2018-12-22T07:50:54.652Z,4.50
2018-12-22T07:51:54.670Z,4.10
2018-12-22T07:52:54.690Z,4.50
2018-12-22T07:53:54.698Z,3.80
2018-12-22T07:54:54.728Z,3.20
2018-12-22T07:55:54.739Z,3.90
2018-12-22T07:56:54.764Z,3.20
2018-12-22T07:57:54.899Z,2.60
2018-12-22T07:58:54.805Z,2.60
2018-12-22T07:59:54.810Z,2.00
2018-12-22T08:00:54.830Z,2.00
2018-12-22T08:01:54.855Z,1.80
2018-12-22T08:02:54.898Z,2.40
2018-12-22T08:03:54.931Z,2.10
2018-12-22T08:04:54.903Z,2.00
2018-12-22T08:05:54.917Z,2.00
2018-12-22T08:06:54.937Z,1.70
2018-12-22T08:07:54.954Z,2.00
2018-12-22T08:08:55.003Z,2.10
2018-12-22T08:09:55.003Z,4.20
2018-12-22T08:10:55.011Z,8.90
2018-12-22T08:11:55.023Z,3.10
2018-12-22T08:12:55.038Z,1.80
2018-12-22T08:13:55.057Z,2.40
2018-12-22T08:14:55.074Z,2.40
2018-12-22T08:15:55.097Z,3.10
2018-12-22T08:16:55.114Z,3.00
2018-12-22T08:17:55.132Z,3.10
2018-12-22T08:18:55.147Z,5.20
2018-12-22T08:19:55.165Z,1.90
2018-12-22T08:20:55.186Z,2.10
2018-12-22T08:21:55.203Z,3.00
2018-12-22T08:22:55.235Z,2.60
2018-12-22T08:23:55.243Z,3.10
2018-12-22T08:24:55.262Z,2.80
2018-12-22T08:25:55.280Z,2.70
2018-12-22T08:26:55.293Z,2.30
2018-12-22T08:27:55.308Z,2.30
2018-12-22T08:28:55.328Z,2.70
2018-12-22T08:29:55.349Z,2.50
2018-12-22T08:30:55.367Z,2.40
2018-12-22T08:31:55.387Z,2.10
2018-12-22T08:32:55.403Z,1.90
2018-12-22T08:33:55.417Z,2.40
2018-12-22T08:34:55.430Z,1.70
2018-12-22T08:35:55.455Z,4.60
2018-12-22T08:36:55.480Z,6.90
2018-12-22T08:37:55.493Z,2.50
2018-12-22T08:38:55.515Z,2.00
2018-12-22T08:39:55.548Z,2.20
2018-12-22T08:40:55.544Z,4.00
2018-12-22T08:41:55.556Z,4.10
2018-12-22T08:42:55.612Z,5.00
2018-12-22T08:43:55.598Z,6.80
2018-12-22T08:44:55.615Z,4.40
2018-12-22T08:45:55.637Z,4.70
2018-12-22T08:46:55.646Z,4.00
2018-12-22T08:47:55.672Z,4.80
2018-12-22T08:48:55.688Z,5.50
2018-12-22T08:49:55.718Z,5.00
2018-12-22T08:50:55.720Z,4.90
2018-12-22T08:51:55.734Z,3.70
2018-12-22T08:52:55.757Z,3.60
2018-12-22T08:53:55.774Z,2.80
2018-12-22T08:54:55.805Z,2.50
2018-12-22T08:55:55.808Z,2.70
2018-12-22T08:56:55.826Z,3.10
2018-12-22T08:57:55.843Z,3.10
2018-12-22T08:58:55.869Z,3.30
2018-12-22T08:59:55.913Z,3.70
2018-12-22T09:00:55.948Z,3.70
2018-12-22T09:01:55.924Z,4.00
2018-12-22T09:02:55.940Z,4.70
2018-12-22T09:03:56.065Z,4.10
2018-12-22T09:04:55.976Z,3.50
2018-12-22T09:05:55.994Z,3.60
2018-12-22T09:06:56.010Z,2.90
2018-12-22T09:07:56.018Z,3.40
2018-12-22T09:08:56.042Z,2.90
2018-12-22T09:09:56.071Z,5.10
2018-12-22T09:10:56.074Z,5.10
2018-12-22T09:11:56.095Z,6.90
2018-12-22T09:12:56.114Z,3.70
2018-12-22T09:13:56.136Z,4.50
2018-12-22T09:14:56.149Z,3.30
2018-12-22T09:15:56.166Z,3.30
2018-12-22T09:16:56.176Z,3.00
2018-12-22T09:17:56.195Z,2.90
2018-12-22T09:18:56.216Z,2.60
2018-12-22T09:19:56.238Z,2.90
2018-12-22T09:20:56.259Z,3.70
2018-12-22T09:21:56.270Z,3.80
2018-12-22T09:22:56.295Z,3.00
2018-12-22T09:23:56.305Z,3.10
2018-12-22T09:24:56.340Z,3.10
2018-12-22T09:25:56.340Z,3.30
2018-12-22T09:26:56.367Z,3.10
2018-12-22T09:27:56.377Z,3.00
2018-12-22T09:28:56.391Z,3.70
2018-12-22T09:29:56.412Z,2.80
2018-12-22T09:31:00.801Z,3.40
2018-12-22T09:31:56.446Z,3.10
2018-12-22T09:32:56.466Z,2.50
2018-12-22T09:33:56.488Z,2.80
2018-12-22T09:34:56.505Z,3.00
2018-12-22T09:35:56.542Z,3.80
2018-12-22T09:36:56.538Z,3.00
2018-12-22T09:37:56.561Z,2.30
2018-12-22T09:38:56.573Z,2.20
2018-12-22T09:39:56.591Z,2.10
2018-12-22T09:40:56.611Z,1.70
2018-12-22T09:41:56.627Z,1.80
2018-12-22T09:42:56.648Z,1.90
2018-12-22T09:43:56.665Z,1.80
2018-12-22T09:44:56.684Z,2.10
2018-12-22T09:45:56.702Z,2.30
2018-12-22T09:46:56.722Z,1.90
2018-12-22T09:47:56.742Z,1.50
2018-12-22T09:48:56.746Z,2.00
2018-12-22T09:49:56.766Z,1.70
2018-12-22T09:50:56.793Z,2.40
2018-12-22T09:51:56.807Z,2.00
2018-12-22T09:52:56.822Z,1.80
2018-12-22T09:53:56.843Z,2.00
2018-12-22T09:54:56.858Z,2.00
2018-12-22T09:55:56.872Z,1.90
2018-12-22T09:56:56.892Z,1.20
2018-12-22T09:57:56.915Z,1.20
2018-12-22T09:58:56.935Z,1.10
2018-12-22T09:59:56.952Z,1.20
2018-12-22T10:00:56.965Z,1.20
2018-12-22T10:01:56.986Z,1.20
2018-12-22T10:02:57.005Z,0.90
2018-12-22T10:03:57.020Z,1.10
2018-12-22T10:04:57.042Z,1.50
2018-12-22T10:05:57.051Z,1.70
2018-12-22T10:06:57.067Z,2.60
2018-12-22T10:07:57.103Z,3.10
2018-12-22T10:08:57.120Z,2.80
2018-12-22T10:09:57.132Z,3.00
2018-12-22T10:10:57.143Z,4.40
2018-12-22T10:11:57.163Z,11.10
2018-12-22T10:12:57.181Z,5.00
2018-12-22T10:13:57.195Z,2.70
2018-12-22T10:14:57.232Z,2.20
2018-12-22T10:15:57.228Z,3.30
2018-12-22T10:16:57.268Z,9.80
2018-12-22T10:17:57.286Z,5.40
2018-12-22T10:18:57.290Z,4.70
2018-12-22T10:19:57.303Z,2.10
2018-12-22T10:20:57.330Z,1.90
2018-12-22T10:21:57.349Z,1.60
2018-12-22T10:22:57.357Z,2.20
2018-12-22T10:23:57.377Z,1.60
2018-12-22T10:24:57.410Z,2.40
2018-12-22T10:25:57.420Z,1.60
2018-12-22T10:26:57.431Z,1.50
2018-12-22T10:27:57.443Z,1.50
2018-12-22T10:28:57.464Z,1.80
2018-12-22T10:29:57.494Z,1.60
2018-12-22T10:30:57.502Z,1.90
2018-12-22T10:31:57.531Z,1.60
2018-12-22T10:32:57.536Z,1.50
2018-12-22T10:33:57.555Z,1.40
2018-12-22T10:34:57.590Z,1.50
2018-12-22T10:35:57.588Z,1.80
2018-12-22T10:36:57.609Z,3.60
2018-12-22T10:37:57.635Z,4.60
2018-12-22T10:38:57.645Z,4.70
2018-12-22T10:39:57.662Z,2.50
2018-12-22T10:40:57.688Z,1.60
2018-12-22T10:41:57.711Z,1.30
2018-12-22T10:42:57.714Z,1.50
2018-12-22T10:43:57.744Z,1.50
2018-12-22T10:44:57.755Z,1.40
2018-12-22T10:45:57.770Z,1.30
2018-12-22T10:46:57.796Z,1.30
2018-12-22T10:47:57.819Z,1.30
2018-12-22T10:48:57.822Z,1.50
2018-12-22T10:49:57.845Z,1.40
2018-12-22T10:50:57.858Z,1.50
2018-12-22T10:51:57.879Z,1.60
2018-12-22T10:52:57.898Z,1.50
2018-12-22T10:53:57.915Z,1.20
2018-12-22T10:54:57.935Z,1.20
2018-12-22T10:55:57.949Z,1.70
2018-12-22T10:56:57.976Z,1.40
2018-12-22T10:57:59.976Z,1.00
2018-12-22T10:58:58.005Z,1.00
2018-12-22T10:59:58.036Z,1.40
2018-12-22T11:00:58.046Z,1.30
2018-12-22T11:01:58.062Z,1.40
2018-12-22T11:02:58.077Z,1.40
2018-12-22T11:03:58.144Z,1.10
2018-12-22T11:04:58.124Z,1.40
2018-12-22T11:05:58.136Z,1.50
2018-12-22T11:06:58.168Z,1.20
2018-12-22T11:07:58.165Z,1.10
2018-12-22T11:08:58.181Z,1.10
2018-12-22T11:09:58.212Z,1.40
2018-12-22T11:10:58.216Z,1.20
2018-12-22T11:11:58.238Z,1.10
2018-12-22T11:12:58.256Z,1.50
2018-12-22T11:13:58.277Z,1.40
2018-12-22T11:14:58.290Z,1.50
2018-12-22T11:15:58.347Z,1.90
2018-12-22T11:16:58.343Z,1.50
2018-12-22T11:17:58.381Z,1.20
2018-12-22T11:18:58.384Z,1.20
2018-12-22T11:19:58.385Z,1.70
2018-12-22T11:20:58.397Z,1.50
2018-12-22T11:21:58.415Z,1.70
2018-12-22T11:22:58.436Z,2.10
2018-12-22T11:23:58.463Z,1.40
2018-12-22T11:24:58.470Z,1.20
2018-12-22T11:25:58.485Z,1.40
2018-12-22T11:26:58.504Z,1.10
2018-12-22T11:27:58.524Z,1.40
2018-12-22T11:28:58.543Z,1.40
2018-12-22T11:29:58.572Z,2.60
2018-12-22T11:30:58.573Z,2.20
2018-12-22T11:31:58.593Z,1.70
2018-12-22T11:32:58.615Z,1.30
2018-12-22T11:33:58.627Z,1.70
2018-12-22T11:34:58.715Z,1.60
2018-12-22T11:35:58.665Z,1.80
2018-12-22T11:36:58.686Z,1.80
2018-12-22T11:37:58.702Z,1.50
2018-12-22T11:38:58.723Z,1.40
2018-12-22T11:39:58.737Z,1.50
2018-12-22T11:40:58.762Z,1.20
2018-12-22T11:41:58.770Z,1.30
2018-12-22T11:42:58.794Z,1.30
2018-12-22T11:43:58.810Z,1.10
2018-12-22T11:44:58.831Z,1.40
2018-12-22T11:45:58.855Z,1.20
2018-12-22T11:46:58.865Z,1.30
2018-12-22T11:47:58.879Z,1.40
2018-12-22T11:48:58.906Z,1.20
2018-12-22T11:49:58.923Z,1.40
2018-12-22T11:50:58.942Z,1.40
2018-12-22T11:51:58.954Z,1.40
2018-12-22T11:52:58.971Z,1.70
2018-12-22T11:53:59.000Z,2.00
2018-12-22T11:54:59.012Z,1.80
2018-12-22T11:55:59.023Z,1.70
2018-12-22T11:56:59.046Z,1.30
2018-12-22T11:57:59.066Z,1.20
2018-12-22T11:58:59.081Z,1.40
2018-12-22T11:59:59.100Z,1.60
2018-12-22T12:00:59.119Z,1.40
2018-12-22T12:01:59.151Z,1.30
2018-12-22T12:02:59.156Z,1.40
2018-12-22T12:03:59.172Z,1.40
2018-12-22T12:04:59.193Z,1.70
2018-12-22T12:05:59.209Z,1.70
2018-12-22T12:06:59.232Z,1.70
2018-12-22T12:07:59.248Z,2.00
2018-12-22T12:08:59.272Z,2.40
2018-12-22T12:09:59.301Z,2.10
2018-12-22T12:11:00.465Z,2.10
2018-12-22T12:11:59.318Z,1.70
2018-12-22T12:12:59.335Z,1.60
2018-12-22T12:13:59.353Z,1.60
2018-12-22T12:14:59.379Z,1.90
2018-12-22T12:15:59.396Z,1.60
2018-12-22T12:16:59.413Z,1.40
2018-12-22T12:17:59.428Z,1.60
2018-12-22T12:18:59.443Z,1.70
2018-12-22T12:19:59.593Z,1.40
2018-12-22T12:20:59.498Z,1.50
2018-12-22T12:21:59.506Z,1.50
2018-12-22T12:22:59.530Z,1.60
2018-12-22T12:24:00.518Z,1.50
2018-12-22T12:24:59.558Z,1.50
2018-12-22T12:25:59.577Z,1.50
2018-12-22T12:26:59.591Z,1.70
2018-12-22T12:27:59.609Z,1.90
2018-12-22T12:28:59.641Z,2.40
2018-12-22T12:29:59.647Z,2.30
2018-12-22T12:30:59.674Z,2.40
2018-12-22T12:31:59.685Z,2.20
2018-12-22T12:32:59.726Z,2.60
2018-12-22T12:33:59.716Z,3.10
2018-12-22T12:34:59.750Z,3.60
2018-12-22T12:35:59.841Z,3.40
2018-12-22T12:36:59.784Z,4.00
2018-12-22T12:37:59.803Z,3.70
2018-12-22T12:38:59.827Z,4.10
2018-12-22T12:39:59.852Z,3.60
2018-12-22T12:40:59.850Z,3.20
2018-12-22T12:41:59.895Z,2.90
2018-12-22T12:42:59.896Z,2.80
2018-12-22T12:43:59.901Z,3.30
2018-12-22T12:44:59.954Z,3.20
2018-12-22T12:45:59.954Z,3.10
2018-12-22T12:46:59.993Z,2.80
2018-12-22T12:48:00.027Z,2.80
2018-12-22T12:48:59.997Z,3.10
2018-12-22T12:50:00.020Z,2.90
2018-12-22T12:51:00.029Z,3.10
2018-12-22T12:52:00.165Z,2.90
2018-12-22T12:53:00.160Z,3.00
2018-12-22T12:54:00.096Z,3.00
2018-12-22T12:55:00.107Z,2.90
2018-12-22T12:56:00.134Z,2.90
2018-12-22T12:57:00.186Z,3.30
2018-12-22T12:58:00.167Z,2.90
2018-12-22T12:59:00.176Z,3.20
2018-12-22T13:00:00.203Z,3.30
2018-12-22T13:01:00.228Z,4.30
2018-12-22T13:02:01.275Z,3.20
2018-12-22T13:03:00.259Z,3.70
2018-12-22T13:04:00.297Z,3.00
2018-12-22T13:05:00.318Z,3.50
2018-12-22T13:06:00.307Z,2.60
2018-12-22T13:07:00.329Z,2.80
2018-12-22T13:08:00.347Z,2.50
2018-12-22T13:09:00.374Z,2.90
2018-12-22T13:10:00.380Z,3.20
2018-12-22T13:11:00.399Z,2.50
2018-12-22T13:12:00.426Z,3.30
2018-12-22T13:13:00.429Z,3.10
2018-12-22T13:14:00.455Z,3.20
2018-12-22T13:15:00.486Z,3.70
2018-12-22T13:16:00.492Z,3.30
2018-12-22T13:17:00.504Z,3.60
2018-12-22T13:18:00.531Z,3.40